Time;durP1;ratioP1;P1;durP2;ratioP2;P2;SDS_P1;SDS_P2;PMS_P1;PMS_P2;Temp;Humidity;BMP_temperature;BMP_pressure;BME280_temperature;BME280_humidity;BME280_pressure;Samples;Min_cycle;Max_cycle;Signal;HPM_P1;HPM_P2
2022/04/20 00:00:36;;;;;;;8.10;3.70;;;;;;;11.89;55.41;101682.22;4975507;28;96846;-35
2022/04/20 00:03:02;;;;;;;7.80;3.17;;;;;;;11.82;55.59;101680.75;4974827;28;97889;-35
2022/04/20 00:05:32;;;;;;;9.13;3.25;;;;;;;11.88;55.32;101687.72;4973224;28;100927;-35
2022/04/20 00:07:57;;;;;;;7.10;3.40;;;;;;;11.82;54.61;101682.56;4972992;28;96690;-35
2022/04/20 00:10:22;;;;;;;10.38;3.10;;;;;;;11.85;54.98;101679.72;4975135;28;96891;-35
2022/04/20 00:12:48;;;;;;;5.78;2.85;;;;;;;11.81;55.92;101689.84;4974411;28;108105;-34
2022/04/20 00:15:13;;;;;;;7.28;2.83;;;;;;;11.73;55.17;101675.81;4973724;28;127103;-35
2022/04/20 00:17:38;;;;;;;11.00;4.00;;;;;;;11.70;55.42;101678.66;4975221;28;96487;-34
2022/04/20 00:20:04;;;;;;;6.97;3.20;;;;;;;11.58;55.80;101673.91;4973956;28;112689;-35
2022/04/20 00:22:30;;;;;;;7.55;3.60;;;;;;;11.61;56.11;101685.47;4974504;28;101275;-34
2022/04/20 00:24:55;;;;;;;8.65;3.08;;;;;;;11.45;55.69;101665.53;4981317;28;99142;-34
2022/04/20 00:27:20;;;;;;;7.32;3.20;;;;;;;11.47;56.08;101680.78;4980457;28;114370;-34
2022/04/20 00:29:45;;;;;;;5.93;3.00;;;;;;;11.47;55.96;101675.34;4980612;28;116930;-34
2022/04/20 00:32:11;;;;;;;8.20;3.00;;;;;;;11.40;56.26;101673.91;4979733;28;125651;-34
2022/04/20 00:34:36;;;;;;;7.00;2.88;;;;;;;11.30;56.06;101672.63;4979619;28;127323;-34
2022/04/20 00:37:02;;;;;;;9.98;3.03;;;;;;;11.40;57.02;101692.91;4981398;28;96721;-35
2022/04/20 00:39:27;;;;;;;5.45;2.67;;;;;;;11.39;56.28;101696.56;4979966;28;96894;-34
2022/04/20 00:41:52;;;;;;;8.63;3.50;;;;;;;11.35;58.33;101694.09;4981005;28;97244;-34
2022/04/20 00:44:19;;;;;;;7.82;3.05;;;;;;;11.23;56.01;101679.31;4981034;28;97802;-34
2022/04/20 00:46:47;;;;;;;7.90;3.00;;;;;;;11.30;56.70;101696.13;4979769;28;96718;-35
2022/04/20 00:49:13;;;;;;;9.95;3.33;;;;;;;11.32;56.69;101687.00;4980026;28;96853;-35
2022/04/20 00:51:52;;;;;;;7.63;3.13;;;;;;;11.29;57.64;101697.97;4979478;28;100910;-35
2022/04/20 00:54:19;;;;;;;13.20;3.70;;;;;;;11.31;57.38;101697.91;4979391;28;101120;-34
2022/04/20 00:56:44;;;;;;;6.55;3.28;;;;;;;11.35;56.49;101703.09;4979222;28;96729;-35
2022/04/20 00:59:10;;;;;;;7.28;2.95;;;;;;;11.35;56.73;101700.41;4979894;28;118710;-35
2022/04/20 01:01:36;;;;;;;9.30;3.88;;;;;;;11.29;56.75;101692.56;4980439;28;98063;-34
2022/04/20 01:04:01;;;;;;;5.95;2.63;;;;;;;11.23;57.02;101684.75;4979831;28;126433;-34
2022/04/20 01:06:26;;;;;;;6.07;2.63;;;;;;;11.27;58.09;101705.31;4980921;28;96851;-34
2022/04/20 01:08:52;;;;;;;8.63;3.40;;;;;;;11.18;56.54;101689.53;4980869;28;96824;-34
2022/04/20 01:11:17;;;;;;;6.20;2.97;;;;;;;11.21;57.05;101695.66;4979724;28;99373;-34
2022/04/20 01:13:42;;;;;;;7.05;2.47;;;;;;;11.16;56.81;101695.03;4981073;28;97294;-35
2022/04/20 01:16:08;;;;;;;7.13;2.55;;;;;;;11.17;56.80;101693.19;4980665;28;98025;-34
2022/04/20 01:18:40;;;;;;;8.40;3.03;;;;;;;11.11;57.51;101701.63;4980946;28;96798;-35
2022/04/20 01:21:07;;;;;;;6.70;2.88;;;;;;;11.12;56.60;101697.97;4979946;28;99103;-35
2022/04/20 01:23:32;;;;;;;9.13;3.13;;;;;;;11.08;57.42;101697.22;4978944;28;100870;-35
2022/04/20 01:25:57;;;;;;;6.65;2.92;;;;;;;11.00;58.65;101686.78;4980685;28;96576;-34
2022/04/20 01:28:23;;;;;;;34.42;3.30;;;;;;;10.89;58.16;101678.28;4979954;28;115634;-34
2022/04/20 01:30:48;;;;;;;5.10;2.75;;;;;;;10.98;57.70;101683.25;4980153;28;98173;-35
2022/04/20 01:33:13;;;;;;;5.53;2.92;;;;;;;10.99;58.72;101684.16;4979881;28;114096;-35
2022/04/20 01:35:39;;;;;;;4.55;2.70;;;;;;;10.97;57.12;101684.22;4975922;28;110058;-35
2022/04/20 01:38:04;;;;;;;7.05;2.92;;;;;;;10.90;57.15;101687.31;4976680;28;117343;-34
2022/04/20 01:40:29;;;;;;;6.20;2.92;;;;;;;10.92;57.86;101694.41;4977052;28;97313;-35
2022/04/20 01:42:55;;;;;;;4.90;2.50;;;;;;;10.84;57.23;101689.38;4977006;28;97993;-34
2022/04/20 01:45:20;;;;;;;5.75;2.47;;;;;;;10.84;57.32;101694.81;4974195;28;117914;-34
2022/04/20 01:47:46;;;;;;;7.55;2.33;;;;;;;10.72;57.98;101686.38;4976965;28;96839;-34
2022/04/20 01:50:11;;;;;;;5.88;2.80;;;;;;;10.73;56.89;101699.00;4976720;28;99536;-35
2022/04/20 01:52:36;;;;;;;6.35;3.15;;;;;;;10.65;57.76;101693.03;4976926;28;97979;-34
2022/04/20 01:55:02;;;;;;;6.45;3.08;;;;;;;10.60;57.93;101691.44;4977213;28;96607;-35
2022/04/20 01:57:27;;;;;;;7.38;3.08;;;;;;;10.58;57.93;101690.66;4976852;28;96874;-35
2022/04/20 01:59:52;;;;;;;7.85;3.15;;;;;;;10.48;57.87;101688.44;4976662;28;97004;-35
2022/04/20 02:02:37;;;;;;;6.65;3.28;;;;;;;10.44;57.99;101690.44;4975756;28;126573;-34
2022/04/20 02:05:04;;;;;;;9.02;3.22;;;;;;;10.39;59.88;101687.94;4977064;28;96482;-34
2022/04/20 02:07:30;;;;;;;6.82;2.70;;;;;;;10.48;59.15;101693.84;4975387;28;96955;-35
2022/04/20 02:09:55;;;;;;;5.38;2.55;;;;;;;10.39;58.73;101679.81;4975510;28;97845;-34
2022/04/20 02:12:21;;;;;;;12.77;2.85;;;;;;;10.41;59.42;101675.19;4975613;28;120049;-35
2022/04/20 02:14:47;;;;;;;4.90;2.50;;;;;;;10.56;58.13;101684.44;4976056;28;106859;-35
2022/04/20 02:17:12;;;;;;;4.82;2.63;;;;;;;10.53;57.70;101679.13;4976905;28;96774;-34
2022/04/20 02:19:38;;;;;;;6.35;2.88;;;;;;;10.43;57.98;101688.66;4976179;28;104327;-34
2022/04/20 02:22:04;;;;;;;6.25;2.90;;;;;;;10.31;57.87;101673.88;4975757;28;109572;-35
2022/04/20 02:24:30;;;;;;;6.50;2.40;;;;;;;10.29;58.57;101674.91;4976688;28;96564;-35
2022/04/20 02:26:55;;;;;;;5.15;2.88;;;;;;;10.26;59.17;101672.31;4976209;28;107420;-35
2022/04/20 02:29:37;;;;;;;4.85;2.47;;;;;;;10.28;59.51;101683.94;4975207;28;123163;-34
2022/04/20 02:32:02;;;;;;;5.22;2.30;;;;;;;10.22;59.12;101671.56;4976238;28;97908;-34
2022/04/20 02:34:28;;;;;;;4.80;2.03;;;;;;;10.21;58.35;101670.69;4975765;28;96626;-34
2022/04/20 02:36:53;;;;;;;4.93;2.50;;;;;;;10.23;59.11;101675.16;4976612;28;96735;-34
2022/04/20 02:39:19;;;;;;;4.47;2.45;;;;;;;10.26;58.02;101677.72;4975042;28;124909;-34
2022/04/20 02:41:44;;;;;;;6.15;2.78;;;;;;;10.28;59.20;101682.16;4974575;28;100745;-34
2022/04/20 02:44:10;;;;;;;7.22;2.92;;;;;;;10.19;58.56;101672.56;4976472;28;96497;-34
2022/04/20 02:46:36;;;;;;;5.55;2.22;;;;;;;10.14;58.46;101671.03;4974693;28;96801;-34
2022/04/20 02:49:02;;;;;;;4.43;2.33;;;;;;;10.20;57.95;101677.06;4975813;28;99319;-34
2022/04/20 02:51:27;;;;;;;6.43;2.65;;;;;;;10.09;57.99;101675.81;4974710;28;100798;-34
2022/04/20 02:53:52;;;;;;;5.03;2.53;;;;;;;10.08;58.61;101682.16;4975844;28;98661;-34
2022/04/20 02:56:18;;;;;;;4.88;2.28;;;;;;;9.94;59.81;101680.97;4973854;28;114318;-35
2022/04/20 02:58:43;;;;;;;2.90;1.73;;;;;;;9.88;59.27;101685.78;4975344;28;97689;-35
2022/04/20 03:01:08;;;;;;;7.63;2.35;;;;;;;9.95;58.68;101698.94;4975359;28;98827;-34
2022/04/20 03:03:34;;;;;;;3.92;2.03;;;;;;;9.94;58.99;101704.47;4976146;28;96678;-34
2022/04/20 03:05:59;;;;;;;7.63;2.92;;;;;;;9.88;59.38;101712.84;4974592;28;96816;-35
2022/04/20 03:08:25;;;;;;;5.90;2.47;;;;;;;9.86;58.84;101695.78;4975522;28;97989;-35
2022/04/20 03:10:51;;;;;;;4.70;2.40;;;;;;;9.93;59.59;101708.09;4974903;28;97895;-34
2022/04/20 03:13:18;;;;;;;4.57;2.28;;;;;;;9.94;58.22;101713.44;4974434;28;96641;-34
2022/04/20 03:15:43;;;;;;;6.07;2.67;;;;;;;9.88;59.72;101702.00;4974716;28;96816;-35
2022/04/20 03:18:09;;;;;;;5.72;1.92;;;;;;;9.93;59.04;101706.25;4975518;28;97847;-35
2022/04/20 03:20:34;;;;;;;6.45;2.67;;;;;;;9.90;58.75;101697.41;4974384;28;127209;-34
2022/04/20 03:23:00;;;;;;;7.57;2.88;;;;;;;9.90;59.28;101700.13;4975151;28;96587;-34
2022/04/20 03:25:25;;;;;;;5.82;2.25;;;;;;;9.96;60.14;101705.25;4975554;28;96740;-34
2022/04/20 03:27:50;;;;;;;5.80;2.53;;;;;;;9.85;59.29;101707.56;4974569;28;125170;-34
2022/04/20 03:30:15;;;;;;;3.60;1.90;;;;;;;9.73;59.39;101699.03;4974263;28;126472;-34
2022/04/20 03:32:41;;;;;;;3.38;1.83;;;;;;;9.68;60.08;101701.06;4974763;28;112821;-34
2022/04/20 03:35:08;;;;;;;4.78;2.17;;;;;;;9.69;58.73;101705.53;4974007;28;96860;-34
2022/04/20 03:37:33;;;;;;;7.10;2.95;;;;;;;9.67;58.84;101707.41;4973713;28;100089;-35
2022/04/20 03:39:59;;;;;;;3.90;2.03;;;;;;;9.63;58.58;101719.34;4974929;28;108014;-35
2022/04/20 03:42:25;;;;;;;6.22;2.10;;;;;;;9.59;58.96;101725.81;4975212;28;96528;-35
2022/04/20 03:44:51;;;;;;;8.75;2.97;;;;;;;9.52;58.92;101713.50;4973959;28;96550;-34
2022/04/20 03:47:16;;;;;;;4.93;2.35;;;;;;;9.42;58.32;101707.63;4974685;28;97878;-34
2022/04/20 03:49:41;;;;;;;4.95;2.70;;;;;;;9.31;59.68;101701.78;4974171;28;126465;-34
2022/04/20 03:52:07;;;;;;;4.90;1.98;;;;;;;9.23;59.31;101715.63;4974061;28;118830;-34
2022/04/20 03:54:34;;;;;;;4.53;2.42;;;;;;;9.32;59.56;101728.75;4973789;28;96949;-35
2022/04/20 03:57:10;;;;;;;4.07;2.28;;;;;;;9.25;59.33;101718.28;4973130;28;101144;-35
2022/04/20 03:59:37;;;;;;;4.57;2.50;;;;;;;9.41;59.32;101732.00;4973563;28;100875;-35
2022/04/20 04:02:04;;;;;;;3.53;1.70;;;;;;;9.31;58.47;101716.19;4973458;28;96723;-34
2022/04/20 04:04:30;;;;;;;4.38;2.53;;;;;;;9.32;58.98;101722.50;4974102;28;96818;-34
2022/04/20 04:06:55;;;;;;;8.15;2.78;;;;;;;9.26;59.24;101715.50;4974722;28;97127;-34
2022/04/20 04:09:20;;;;;;;4.50;1.73;;;;;;;9.34;58.82;101726.88;4973595;28;128338;-34
2022/04/20 04:11:46;;;;;;;3.35;1.73;;;;;;;9.36;58.33;101726.78;4974455;28;96427;-34
2022/04/20 04:14:12;;;;;;;5.47;2.40;;;;;;;9.18;59.04;101725.75;4973702;28;96535;-34
2022/04/20 04:16:37;;;;;;;6.10;2.72;;;;;;;9.22;59.27;101730.06;4974689;28;97936;-34
2022/04/20 04:19:04;;;;;;;4.18;2.40;;;;;;;9.22;58.30;101740.88;4974535;28;99709;-34
2022/04/20 04:21:31;;;;;;;5.50;2.50;;;;;;;9.13;58.90;101735.88;4973589;28;96547;-34
2022/04/20 04:23:56;;;;;;;4.03;2.13;;;;;;;9.06;59.68;101737.09;4973633;28;96835;-34
2022/04/20 04:26:22;;;;;;;7.40;2.05;;;;;;;8.97;59.41;101723.94;4974646;28;97425;-34
2022/04/20 04:28:47;;;;;;;2.97;1.75;;;;;;;9.01;59.23;101739.06;4974698;28;99096;-35
2022/04/20 04:31:12;;;;;;;3.38;2.17;;;;;;;8.96;59.22;101731.16;4974668;28;96485;-34
2022/04/20 04:33:38;;;;;;;2.85;1.75;;;;;;;8.93;59.21;101728.59;4975053;28;96724;-34
2022/04/20 04:36:03;;;;;;;7.28;2.60;;;;;;;8.93;59.02;101726.75;4973108;28;126373;-35
2022/04/20 04:38:28;;;;;;;5.05;2.28;;;;;;;8.95;59.21;101734.81;4974450;28;97819;-34
2022/04/20 04:40:54;;;;;;;3.72;2.03;;;;;;;8.94;59.67;101735.75;4973665;28;114792;-34
2022/04/20 04:43:19;;;;;;;2.63;1.73;;;;;;;8.92;59.06;101743.91;4974803;28;96901;-34
2022/04/20 04:48:42;;;;;;;4.65;1.85;;;;;;;8.83;58.54;101744.28;4974262;28;97021;-35
2022/04/20 04:51:09;;;;;;;4.57;2.45;;;;;;;8.86;59.18;101748.69;4974687;28;96689;-35
2022/04/20 04:53:35;;;;;;;5.00;2.15;;;;;;;8.92;58.78;101754.72;4957396;28;96696;-34
2022/04/20 04:56:00;;;;;;;4.47;1.90;;;;;;;8.85;58.54;101757.75;4972895;28;100808;-34
2022/04/20 04:58:25;;;;;;;3.08;1.38;;;;;;;8.80;58.42;101755.22;4974470;28;97801;-34
2022/04/20 05:00:51;;;;;;;5.05;2.42;;;;;;;8.79;59.25;101757.97;4973818;28;105277;-35
2022/04/20 05:03:16;;;;;;;4.15;1.88;;;;;;;8.74;58.44;101754.56;4974364;28;96761;-35
2022/04/20 05:05:42;;;;;;;3.35;2.05;;;;;;;8.84;59.25;101773.06;4974184;28;97950;-35
2022/04/20 05:08:08;;;;;;;3.97;1.85;;;;;;;8.80;58.53;101760.63;4972526;28;100857;-35
2022/04/20 05:10:34;;;;;;;4.45;1.73;;;;;;;8.87;58.83;101772.06;4976368;28;96820;-34
2022/04/20 05:13:00;;;;;;;3.55;1.67;;;;;;;8.82;58.79;101757.84;4977650;28;96796;-35
2022/04/20 05:15:26;;;;;;;4.50;2.03;;;;;;;8.88;58.59;101779.22;4977171;28;99383;-34
2022/04/20 05:17:52;;;;;;;5.32;2.28;;;;;;;8.85;58.54;101768.53;4975962;28;100854;-34
2022/04/20 05:20:19;;;;;;;7.70;2.42;;;;;;;8.86;58.27;101781.97;4977348;28;96445;-35
2022/04/20 05:22:45;;;;;;;4.18;2.20;;;;;;;8.82;58.36;101774.94;4977023;28;96820;-35
2022/04/20 05:25:10;;;;;;;3.60;1.95;;;;;;;8.88;58.67;101782.81;4975181;28;97563;-35
2022/04/20 05:27:36;;;;;;;3.58;2.08;;;;;;;8.84;58.56;101770.38;4977025;28;102001;-34
2022/04/20 05:30:02;;;;;;;8.35;1.70;;;;;;;8.88;58.38;101779.22;4977418;28;96876;-34
2022/04/20 05:32:27;;;;;;;8.18;2.10;;;;;;;8.90;58.28;101785.44;4975834;28;96809;-34
2022/04/20 05:34:53;;;;;;;6.00;2.00;;;;;;;8.92;57.92;101795.25;4976852;28;111017;-34
2022/04/20 05:42:46;;;;;;;4.35;2.40;;;;;;;8.91;57.85;101784.50;4976712;28;96682;-35
2022/04/20 05:45:11;;;;;;;3.65;1.88;;;;;;;8.99;57.63;101792.31;4975849;28;98999;-34
2022/04/20 05:47:38;;;;;;;4.13;1.92;;;;;;;9.05;57.49;101786.66;4975923;28;97211;-35
2022/04/20 05:50:04;;;;;;;3.90;1.70;;;;;;;9.10;57.01;101785.50;4974778;28;96744;-34
2022/04/20 05:52:29;;;;;;;5.45;2.13;;;;;;;9.10;57.15;101785.50;4975599;28;96859;-34
2022/04/20 05:54:57;;;;;;;2.58;1.27;;;;;;;9.04;57.42;101774.09;4976217;28;115037;-34
2022/04/20 05:57:22;;;;;;;2.83;1.85;;;;;;;9.11;57.62;101787.28;4975133;28;99983;-34
2022/04/20 05:59:48;;;;;;;2.97;1.75;;;;;;;9.13;57.56;101789.94;4977120;28;96498;-34
2022/04/20 06:02:13;;;;;;;2.28;1.50;;;;;;;9.16;57.42;101789.81;4975742;28;116968;-34
2022/04/20 06:04:38;;;;;;;5.90;1.95;;;;;;;9.17;57.19;101786.16;4976362;28;99439;-34
2022/04/20 06:07:04;;;;;;;5.43;2.10;;;;;;;9.31;57.01;101800.00;4976689;28;97040;-34
2022/04/20 06:09:29;;;;;;;2.67;1.50;;;;;;;9.39;56.51;101802.41;4976346;28;97127;-34
2022/04/20 06:11:54;;;;;;;3.17;1.77;;;;;;;9.46;56.19;101793.09;4975464;28;96792;-34
2022/04/20 06:14:20;;;;;;;3.58;1.58;;;;;;;9.64;56.09;101799.53;4975053;28;126793;-34
2022/04/20 06:16:46;;;;;;;3.97;1.92;;;;;;;9.71;55.79;101790.22;4976374;28;97876;-34
2022/04/20 06:19:11;;;;;;;2.70;1.52;;;;;;;9.74;55.58;101783.78;4976446;28;96453;-34
2022/04/20 06:21:36;;;;;;;3.42;1.77;;;;;;;9.94;55.36;101794.63;4975165;28;117350;-34
2022/04/20 06:24:01;;;;;;;3.60;1.63;;;;;;;10.12;54.99;101802.88;4975390;28;127214;-34
2022/04/20 06:26:27;;;;;;;2.40;1.52;;;;;;;10.14;54.67;101784.75;4976098;28;97270;-34
2022/04/20 06:28:52;;;;;;;4.10;1.50;;;;;;;10.32;54.55;101793.88;4976405;28;96623;-34
2022/04/20 06:31:17;;;;;;;3.80;1.63;;;;;;;10.34;54.24;101784.75;4977227;28;96947;-34
2022/04/20 06:33:43;;;;;;;3.60;1.70;;;;;;;10.44;54.17;101797.88;4976165;28;97108;-34
2022/04/20 06:36:08;;;;;;;2.30;1.08;;;;;;;10.43;53.82;101799.72;4975620;28;105843;-34
2022/04/20 06:38:33;;;;;;;5.28;1.67;;;;;;;10.40;53.81;101779.06;4974998;28;118131;-34
2022/04/20 06:40:58;;;;;;;3.28;1.52;;;;;;;10.57;53.60;101793.66;4975718;28;108301;-34
2022/04/20 06:43:24;;;;;;;2.53;1.23;;;;;;;10.59;53.62;101792.63;4975774;28;109288;-34
2022/04/20 06:45:49;;;;;;;1.90;1.15;;;;;;;10.79;53.25;101799.81;4975844;28;99376;-34
2022/04/20 06:48:14;;;;;;;3.15;1.67;;;;;;;10.94;52.95;101797.34;4975401;28;112281;-34
2022/04/20 06:50:40;;;;;;;2.22;1.40;;;;;;;11.07;52.45;101794.94;4975500;28;111475;-34
2022/04/20 06:58:44;;;;;;;3.05;1.77;;;;;;;11.79;51.39;101803.06;4976559;28;96488;-34
2022/04/20 07:01:09;;;;;;;3.17;1.50;;;;;;;11.84;51.50;101797.38;4974555;28;96868;-34
2022/04/20 07:03:36;;;;;;;2.80;1.33;;;;;;;12.04;51.07;101796.41;4975052;28;99387;-34
2022/04/20 07:06:02;;;;;;;3.42;1.83;;;;;;;12.23;50.87;101802.59;4975569;28;97318;-35
2022/04/20 07:08:29;;;;;;;4.85;1.98;;;;;;;12.41;50.41;101802.56;4974231;28;96904;-35
2022/04/20 07:10:54;;;;;;;4.50;1.52;;;;;;;12.67;50.17;101802.03;4974034;28;96954;-35
2022/04/20 07:13:20;;;;;;;4.05;1.75;;;;;;;12.83;49.50;101806.63;4975655;28;96718;-35
2022/04/20 07:15:45;;;;;;;5.03;1.92;;;;;;;13.02;49.47;101807.34;4975123;28;99350;-34
2022/04/20 07:18:12;;;;;;;2.70;1.25;;;;;;;13.04;49.11;101802.72;4975903;28;96480;-35
2022/04/20 07:20:38;;;;;;;4.97;2.20;;;;;;;13.21;49.08;101814.47;4974664;28;96939;-34
2022/04/20 07:23:03;;;;;;;3.88;1.80;;;;;;;13.29;48.87;101804.06;4975103;28;99616;-34
2022/04/20 07:25:29;;;;;;;3.35;1.45;;;;;;;13.41;48.73;101797.03;4975484;28;97951;-35
2022/04/20 07:27:55;;;;;;;3.78;1.88;;;;;;;13.64;48.09;101801.13;4975240;28;97274;-34
2022/04/20 07:30:20;;;;;;;3.75;1.92;;;;;;;13.83;48.12;101809.94;4975122;28;97247;-35
2022/04/20 07:32:47;;;;;;;4.05;1.90;;;;;;;14.02;47.52;101817.88;4974228;28;99292;-34
2022/04/20 07:35:12;;;;;;;3.47;1.80;;;;;;;14.20;47.65;101811.28;4974925;28;99300;-35
2022/04/20 07:37:37;;;;;;;3.20;1.98;;;;;;;14.19;47.84;101789.59;4975308;28;96537;-34
2022/04/20 07:40:03;;;;;;;4.80;1.77;;;;;;;14.43;47.33;101804.44;4975492;28;96887;-34
2022/04/20 07:42:28;;;;;;;2.95;1.70;;;;;;;14.53;46.74;101810.19;4975170;28;97126;-34
2022/04/20 07:44:56;;;;;;;3.60;1.55;;;;;;;14.62;46.93;101808.75;4975388;28;109577;-34
2022/04/20 07:47:24;;;;;;;3.60;1.92;;;;;;;14.82;46.65;101811.09;4975449;28;96484;-34
2022/04/20 07:52:38;;;;;;;2.85;1.73;;;;;;;15.11;45.85;101791.97;4975029;28;97033;-34
2022/04/20 07:55:12;;;;;;;6.13;2.03;;;;;;;15.32;45.41;101810.63;4973357;28;101443;-34
2022/04/20 07:57:37;;;;;;;2.17;1.33;;;;;;;15.36;44.23;101804.88;4973918;28;96633;-34
2022/04/20 08:00:04;;;;;;;2.53;1.52;;;;;;;15.47;44.55;101807.75;4975045;28;96630;-34
2022/04/20 08:02:29;;;;;;;3.33;1.50;;;;;;;15.53;44.62;101801.00;4972917;28;101850;-35
2022/04/20 08:04:55;;;;;;;2.60;1.42;;;;;;;15.71;44.67;101805.25;4974772;28;98879;-34
2022/04/20 08:07:20;;;;;;;4.80;1.90;;;;;;;15.77;44.35;101798.50;4975057;28;96713;-35
2022/04/20 08:09:45;;;;;;;2.28;1.65;;;;;;;16.01;44.49;101804.13;4974153;28;117142;-34
2022/04/20 08:12:11;;;;;;;5.70;1.83;;;;;;;16.11;43.92;101791.59;4974009;28;125204;-35
2022/04/20 08:14:36;;;;;;;2.35;1.23;;;;;;;16.16;44.59;101796.75;4974868;28;97218;-34
2022/04/20 08:17:01;;;;;;;3.10;1.65;;;;;;;16.22;44.39;101785.34;4973222;28;116755;-34
2022/04/20 08:19:27;;;;;;;3.75;2.00;;;;;;;16.42;43.96;101804.94;4974767;28;96828;-35
2022/04/20 08:21:52;;;;;;;3.53;1.50;;;;;;;16.46;43.67;101801.88;4974627;28;97794;-35
2022/04/20 08:24:17;;;;;;;3.33;1.63;;;;;;;16.55;42.17;101805.84;4974101;28;117837;-35
2022/04/20 08:26:42;;;;;;;3.00;1.65;;;;;;;16.64;42.99;101815.25;4974767;28;96595;-35
2022/04/20 08:29:09;;;;;;;2.50;1.50;;;;;;;16.71;43.40;101820.16;4974889;28;96844;-34
2022/04/20 08:31:36;;;;;;;2.60;1.55;;;;;;;16.69;42.95;101816.66;4972915;28;100930;-34
2022/04/20 08:34:01;;;;;;;2.88;1.40;;;;;;;16.70;42.11;101817.53;4973497;28;100836;-35
2022/04/20 08:36:27;;;;;;;2.92;1.63;;;;;;;16.72;41.29;101819.16;4974915;28;96564;-34
2022/04/20 08:38:52;;;;;;;4.50;2.10;;;;;;;16.69;42.26;101826.72;4973869;28;115381;-34
2022/04/20 08:41:18;;;;;;;3.47;1.73;;;;;;;16.86;42.65;101820.06;4973992;28;97852;-34
2022/04/20 08:43:43;;;;;;;4.55;1.73;;;;;;;17.06;42.39;101821.34;4975048;28;98940;-34
2022/04/20 08:46:12;;;;;;;3.00;1.75;;;;;;;17.24;42.68;101822.72;4978337;28;96587;-34
2022/04/20 08:48:38;;;;;;;3.40;1.83;;;;;;;17.30;42.06;101811.31;4976845;28;96915;-34
2022/04/20 08:51:05;;;;;;;7.00;2.30;;;;;;;17.41;42.01;101813.25;4977865;28;97835;-34
2022/04/20 08:53:30;;;;;;;3.90;1.55;;;;;;;17.49;42.09;101812.66;4976422;28;100847;-34
2022/04/20 08:57:15;;;;;;;4.05;2.13;;;;;;;17.47;42.03;101811.91;4978041;28;96576;-34
2022/04/20 08:58:46;;;;;;;3.13;1.65;;;;;;;17.54;41.77;101810.44;4978152;28;96658;-34
2022/04/20 09:01:13;;;;;;;3.30;1.70;;;;;;;17.75;41.16;101817.03;4976113;28;104537;-34
2022/04/20 09:03:39;;;;;;;4.88;1.80;;;;;;;17.82;41.09;101806.53;4976118;28;100892;-34
2022/04/20 09:06:05;;;;;;;5.28;2.30;;;;;;;18.01;40.85;101819.69;4977566;28;96608;-34
2022/04/20 09:08:31;;;;;;;4.82;2.08;;;;;;;18.14;41.14;101815.00;4976288;28;96928;-35
2022/04/20 09:10:57;;;;;;;6.57;2.00;;;;;;;18.20;41.25;101810.91;4976988;28;97398;-35
2022/04/20 09:13:41;;;;;;;5.18;2.30;;;;;;;18.37;40.70;101809.56;4977249;28;97374;-34
2022/04/20 09:16:07;;;;;;;3.95;2.33;;;;;;;18.34;40.33;101809.81;4977710;28;96590;-34
2022/04/20 09:18:33;;;;;;;4.20;2.35;;;;;;;18.45;40.32;101807.09;4976247;28;96971;-35
2022/04/20 09:21:10;;;;;;;3.85;2.00;;;;;;;18.45;38.68;101816.19;4975827;28;101217;-34
2022/04/20 09:23:36;;;;;;;5.65;1.80;;;;;;;18.58;38.57;101807.84;4976039;28;100730;-34
2022/04/20 09:26:12;;;;;;;8.23;2.10;;;;;;;18.52;38.95;101802.88;4976207;28;96557;-34
2022/04/20 09:28:40;;;;;;;4.00;1.88;;;;;;;18.70;38.02;101807.88;4976158;28;96909;-34
2022/04/20 09:31:07;;;;;;;3.15;1.67;;;;;;;18.76;38.82;101807.34;4976538;28;99712;-34
2022/04/20 09:33:44;;;;;;;6.70;1.98;;;;;;;18.96;37.97;101806.66;4975706;28;101227;-35
2022/04/20 09:36:11;;;;;;;3.80;1.85;;;;;;;19.08;37.51;101802.03;4975832;28;96706;-34
2022/04/20 09:38:39;;;;;;;3.75;2.00;;;;;;;19.17;37.61;101798.53;4975907;28;96908;-34
2022/04/20 09:41:09;;;;;;;4.25;1.88;;;;;;;19.19;36.73;101788.28;4975722;28;99398;-35
2022/04/20 09:43:35;;;;;;;3.97;1.92;;;;;;;19.37;37.54;101791.34;4975643;28;100728;-35
2022/04/20 09:49:05;;;;;;;3.58;1.73;;;;;;;19.53;36.83;101785.44;4977951;28;96660;-34
2022/04/20 09:51:41;;;;;;;2.58;1.60;;;;;;;19.64;36.10;101790.00;4976842;28;99041;-34
2022/04/20 09:54:27;;;;;;;5.45;1.67;;;;;;;19.75;36.03;101787.25;4976977;28;97734;-34
2022/04/20 09:57:10;;;;;;;3.85;1.55;;;;;;;19.87;34.20;101791.72;4974419;28;96549;-35
2022/04/20 09:59:37;;;;;;;3.58;2.00;;;;;;;19.82;34.09;101788.50;4975693;28;96874;-35
2022/04/20 10:02:12;;;;;;;2.50;1.52;;;;;;;20.03;35.67;101779.41;4974900;28;100935;-34
2022/04/20 10:04:42;;;;;;;4.68;1.73;;;;;;;19.97;33.30;101769.78;4975100;28;100728;-35
2022/04/20 10:07:07;;;;;;;4.07;1.65;;;;;;;19.95;34.71;101782.81;4975509;28;96887;-34
2022/04/20 10:09:33;;;;;;;3.28;1.38;;;;;;;20.02;34.66;101769.38;4975304;28;112667;-34
2022/04/20 10:11:59;;;;;;;2.25;1.13;;;;;;;19.97;33.44;101779.91;4976618;28;97934;-35
2022/04/20 10:17:13;;;;;;;2.22;1.27;;;;;;;19.80;33.75;101768.50;4976911;28;96728;-34
2022/04/20 10:19:40;;;;;;;2.80;1.13;;;;;;;19.92;33.68;101761.94;4975324;28;96805;-35
2022/04/20 10:22:06;;;;;;;5.38;1.58;;;;;;;20.03;32.53;101769.25;4974318;28;100912;-35
2022/04/20 10:24:38;;;;;;;3.90;1.48;;;;;;;19.90;32.30;101761.22;4976616;28;97396;-34
2022/04/20 10:27:19;;;;;;;;;;;;;;;20.17;33.07;101772.69;4975738;28;96656;-35
2022/04/20 10:29:58;;;;;;;3.55;1.05;;;;;;;20.47;33.34;101772.72;4975442;28;96624;-35
2022/04/20 10:32:41;;;;;;;3.40;1.73;;;;;;;20.76;33.34;101756.41;4975958;28;99387;-35
2022/04/20 10:35:06;;;;;;;3.00;1.60;;;;;;;20.88;31.76;101764.53;4974650;28;100277;-34
2022/04/20 10:37:31;;;;;;;3.33;1.75;;;;;;;20.97;32.63;101774.72;4976583;28;96551;-35
2022/04/20 10:40:16;;;;;;;3.28;1.35;;;;;;;20.85;30.21;101765.69;4976077;28;110635;-35
2022/04/20 10:42:41;;;;;;;1.88;1.23;;;;;;;20.76;30.87;101758.25;4974638;28;101158;-35
2022/04/20 10:45:08;;;;;;;5.55;1.58;;;;;;;20.72;32.95;101749.41;4974798;28;126787;-35
2022/04/20 10:47:42;;;;;;;3.83;1.95;;;;;;;20.83;32.52;101747.56;4975896;28;96539;-35
2022/04/20 10:50:23;;;;;;;5.28;1.67;;;;;;;20.98;30.50;101754.44;4976104;28;96623;-34
2022/04/20 10:53:04;;;;;;;2.78;1.42;;;;;;;21.00;32.02;101741.41;4974369;28;101348;-35
2022/04/20 10:55:30;;;;;;;2.85;1.38;;;;;;;21.16;31.55;101751.88;4975848;28;97853;-35
2022/04/20 10:57:58;;;;;;;2.27;1.43;;;;;;;21.11;32.75;101733.00;4975875;28;97197;-35
2022/04/20 11:00:27;;;;;;;4.80;2.22;;;;;;;21.16;31.89;101718.81;4976162;28;96824;-35
2022/04/20 11:02:54;;;;;;;2.78;1.48;;;;;;;21.25;32.24;101736.38;4974026;28;101121;-35
2022/04/20 11:05:21;;;;;;;4.38;1.58;;;;;;;21.42;30.65;101724.66;4975918;28;98923;-35
2022/04/20 11:07:59;;;;;;;4.53;1.42;;;;;;;21.44;31.07;101727.28;4974196;28;96940;-35
2022/04/20 11:10:24;;;;;;;3.30;1.63;;;;;;;21.60;31.84;101722.09;4974788;28;102714;-34
2022/04/20 11:19:07;;;;;;;1.83;1.20;;;;;;;21.57;30.70;101716.84;4976280;28;96542;-34
2022/04/20 11:21:33;;;;;;;3.28;1.40;;;;;;;21.46;30.25;101717.00;4976252;28;96811;-35
2022/04/20 11:24:03;;;;;;;2.47;1.17;;;;;;;21.41;29.41;101712.78;4992118;28;100827;-35
2022/04/20 11:26:48;;;;;;;4.18;1.40;;;;;;;21.61;30.58;101705.38;4985289;28;101286;-35
2022/04/20 11:29:22;;;;;;;3.15;1.38;;;;;;;21.37;29.76;101710.41;4975592;28;96478;-34
2022/04/20 11:32:09;;;;;;;2.05;1.20;;;;;;;21.16;29.45;101703.13;4975980;28;96675;-35
2022/04/20 11:34:36;;;;;;;2.50;1.15;;;;;;;21.02;29.48;101700.78;4975901;28;97912;-35
2022/04/20 11:37:06;;;;;;;3.33;1.30;;;;;;;21.34;30.79;101705.22;4980389;28;97452;-35
2022/04/20 11:39:32;;;;;;;3.45;1.75;;;;;;;21.52;30.78;101697.97;4990210;28;96762;-35
2022/04/20 11:42:05;;;;;;;3.10;1.70;;;;;;;21.74;30.10;101680.28;4979538;28;96882;-35
2022/04/20 11:44:41;;;;;;;2.97;1.58;;;;;;;21.61;29.50;101686.06;4971951;28;102926;-35
2022/04/20 11:47:10;;;;;;;3.05;1.58;;;;;;;21.59;29.55;101682.59;4973092;28;100988;-35
2022/04/20 11:49:48;;;;;;;4.40;1.70;;;;;;;21.68;30.01;101674.47;4973222;28;96777;-35
2022/04/20 11:52:15;;;;;;;2.53;1.38;;;;;;;21.78;30.11;101689.97;4975097;28;96660;-35